Time;durP1;ratioP1;P1;durP2;ratioP2;P2;SDS_P1;SDS_P2;PMS_P1;PMS_P2;Temp;Humidity;BMP_temperature;BMP_pressure;BME280_temperature;BME280_humidity;BME280_pressure;Samples;Min_cycle;Max_cycle;Signal;HPM_P1;HPM_P2
2023/05/11 00:00:30;;;;;;;7.25;6.43;;;12.00;99.90;;;;;;5050075;28;20545;-60
2023/05/11 00:02:56;;;;;;;7.43;6.53;;;12.00;99.90;;;;;;5050783;28;20041;-61
2023/05/11 00:05:21;;;;;;;7.15;6.45;;;12.00;99.90;;;;;;5050108;28;20044;-60
2023/05/11 00:07:47;;;;;;;7.82;7.00;;;11.90;99.90;;;;;;5049805;28;20295;-60
2023/05/11 00:10:12;;;;;;;7.68;6.88;;;11.90;99.90;;;;;;5048708;28;20455;-61
2023/05/11 00:12:38;;;;;;;7.60;6.82;;;11.90;99.90;;;;;;5048644;28;20059;-60
2023/05/11 00:15:04;;;;;;;8.00;7.20;;;11.90;99.90;;;;;;5049221;28;20048;-61
2023/05/11 00:17:30;;;;;;;7.63;6.20;;;11.90;99.90;;;;;;5048785;28;20108;-59
2023/05/11 00:19:55;;;;;;;7.90;7.10;;;11.80;99.90;;;;;;5048421;28;20121;-59
2023/05/11 00:22:21;;;;;;;10.32;8.02;;;11.80;99.90;;;;;;5049663;28;20068;-58
2023/05/11 00:24:47;;;;;;;9.77;8.75;;;11.90;99.90;;;;;;5049363;28;20578;-60
2023/05/11 00:27:12;;;;;;;9.00;8.10;;;11.80;99.90;;;;;;5049710;28;20055;-59
2023/05/11 00:29:38;;;;;;;9.13;7.88;;;11.80;99.90;;;;;;5048705;28;20074;-61
2023/05/11 00:32:04;;;;;;;12.30;9.88;;;11.80;99.90;;;;;;5047799;28;20070;-60
2023/05/11 00:34:30;;;;;;;9.45;8.32;;;11.80;99.90;;;;;;5050034;28;20040;-59
2023/05/11 00:36:56;;;;;;;9.82;8.70;;;11.80;99.90;;;;;;5052362;28;20043;-61
2023/05/11 00:39:22;;;;;;;10.60;9.48;;;11.80;99.90;;;;;;5053519;28;20049;-60
2023/05/11 00:41:47;;;;;;;11.18;9.80;;;11.80;99.90;;;;;;5053704;28;20056;-61
2023/05/11 00:44:13;;;;;;;12.55;10.10;;;11.80;99.90;;;;;;5053574;28;20033;-60
2023/05/11 00:46:39;;;;;;;10.65;9.55;;;11.80;99.90;;;;;;5053613;28;20037;-60
2023/05/11 00:49:04;;;;;;;11.43;10.20;;;11.90;99.90;;;;;;5052920;28;20480;-60
2023/05/11 00:51:31;;;;;;;10.93;9.50;;;11.80;99.90;;;;;;5051835;28;20405;-60
2023/05/11 00:53:58;;;;;;;12.27;10.70;;;11.80;99.90;;;;;;5053315;28;20029;-60
2023/05/11 00:56:24;;;;;;;13.38;10.07;;;11.80;99.90;;;;;;5053451;28;20045;-61
2023/05/11 00:58:51;;;;;;;11.95;9.60;;;11.80;99.90;;;;;;5053380;28;20090;-60
2023/05/11 01:01:17;;;;;;;11.07;9.93;;;11.80;99.90;;;;;;5053010;28;20045;-60
2023/05/11 01:03:44;;;;;;;12.10;9.77;;;11.80;99.90;;;;;;5053199;28;20412;-60
2023/05/11 01:06:17;;;;;;;11.25;10.02;;;11.80;99.90;;;;;;5052605;28;20487;-60
2023/05/11 01:09:05;;;;;;;11.68;9.93;;;11.90;99.90;;;;;;5054490;28;20048;-61
2023/05/11 01:11:45;;;;;;;11.60;10.38;;;11.90;99.90;;;;;;5052814;28;20453;-60
2023/05/11 01:14:17;;;;;;;12.00;10.68;;;11.90;99.90;;;;;;5051708;28;20060;-60
2023/05/11 01:16:46;;;;;;;12.80;11.13;;;11.90;99.90;;;;;;5051957;28;20535;-59
2023/05/11 01:19:35;;;;;;;12.88;10.98;;;11.90;99.90;;;;;;5054084;28;20424;-59
2023/05/11 01:22:14;;;;;;;11.63;10.43;;;11.90;99.90;;;;;;5052667;28;20119;-61
2023/05/11 01:24:53;;;;;;;12.32;11.02;;;11.90;99.90;;;;;;5052602;28;20040;-59
2023/05/11 01:27:47;;;;;;;12.95;10.52;;;11.90;99.90;;;;;;5051050;28;20049;-59
2023/05/11 01:30:18;;;;;;;11.43;10.23;;;11.90;99.90;;;;;;5052094;28;20072;-59
2023/05/11 01:32:45;;;;;;;15.35;11.75;;;11.90;99.90;;;;;;5052694;28;20147;-60
2023/05/11 01:35:16;;;;;;;11.70;10.43;;;11.90;99.90;;;;;;5052632;28;20412;-60
2023/05/11 01:37:47;;;;;;;15.00;10.90;;;11.90;99.90;;;;;;5052412;28;20037;-60
2023/05/11 01:40:16;;;;;;;12.30;10.63;;;11.90;99.90;;;;;;5052350;28;20044;-61
2023/05/11 01:42:47;;;;;;;13.82;11.38;;;11.90;99.90;;;;;;5052469;28;20403;-60
2023/05/11 01:45:15;;;;;;;14.38;11.20;;;11.90;99.90;;;;;;5052567;28;20045;-61
2023/05/11 01:47:43;;;;;;;12.50;11.13;;;11.90;99.90;;;;;;5052691;28;20049;-60
2023/05/11 01:50:10;;;;;;;13.30;11.50;;;11.90;99.90;;;;;;5051172;28;20112;-59
2023/05/11 01:52:37;;;;;;;13.38;10.95;;;11.90;99.90;;;;;;5052244;28;20044;-60
2023/05/11 01:55:04;;;;;;;12.45;10.70;;;11.90;99.90;;;;;;5051031;28;20033;-59
2023/05/11 01:57:31;;;;;;;12.93;10.43;;;11.90;99.90;;;;;;5052108;28;20151;-59
2023/05/11 01:59:59;;;;;;;13.50;10.57;;;11.90;99.90;;;;;;5051988;28;20407;-60
2023/05/11 02:02:26;;;;;;;12.68;11.38;;;11.90;99.90;;;;;;5067729;28;20037;-60
2023/05/11 02:04:53;;;;;;;12.73;10.98;;;11.90;99.90;;;;;;5052146;28;20072;-61
2023/05/11 02:07:21;;;;;;;13.93;11.70;;;11.90;99.90;;;;;;5053009;28;20412;-60
2023/05/11 02:09:48;;;;;;;15.25;11.50;;;11.90;99.90;;;;;;5052093;28;20041;-60
2023/05/11 02:12:17;;;;;;;12.80;11.20;;;11.90;99.90;;;;;;5051883;28;20116;-60
2023/05/11 02:14:44;;;;;;;13.68;11.63;;;11.90;99.90;;;;;;5051601;28;20041;-60
2023/05/11 02:17:10;;;;;;;13.93;12.38;;;11.90;99.90;;;;;;5051756;28;20446;-59
2023/05/11 02:19:38;;;;;;;14.27;11.77;;;11.90;99.90;;;;;;5051309;28;20037;-60
2023/05/11 02:22:05;;;;;;;16.15;12.27;;;11.90;99.90;;;;;;5051577;28;20120;-59
2023/05/11 02:24:32;;;;;;;14.85;11.85;;;11.80;99.90;;;;;;5067180;28;20123;-60
2023/05/11 02:26:58;;;;;;;15.27;12.13;;;11.80;99.90;;;;;;5050314;28;20124;-61
2023/05/11 02:29:24;;;;;;;15.75;13.23;;;11.80;99.90;;;;;;5051415;28;20466;-61
2023/05/11 02:31:56;;;;;;;16.00;12.57;;;11.80;99.90;;;;;;5051134;28;20483;-58
2023/05/11 02:34:26;;;;;;;15.30;13.15;;;11.80;99.90;;;;;;5051444;28;20044;-61
2023/05/11 02:36:59;;;;;;;13.88;11.27;;;11.70;99.90;;;;;;5051064;28;20041;-60
2023/05/11 02:39:32;;;;;;;15.32;12.82;;;11.70;99.90;;;;;;5052403;28;20041;-59
2023/05/11 02:42:01;;;;;;;14.13;12.27;;;11.70;99.90;;;;;;5050443;28;20051;-58
2023/05/11 02:44:31;;;;;;;14.30;12.05;;;11.70;99.90;;;;;;5051442;28;20534;-59
2023/05/11 02:47:01;;;;;;;16.15;12.90;;;11.70;99.90;;;;;;5051152;28;20132;-61
2023/05/11 02:49:30;;;;;;;14.65;12.15;;;11.70;99.90;;;;;;5049774;28;20049;-59
2023/05/11 02:51:58;;;;;;;16.15;12.35;;;11.70;99.90;;;;;;5051029;28;20068;-60
2023/05/11 02:54:25;;;;;;;18.08;13.07;;;11.70;99.90;;;;;;5051300;28;20053;-60
2023/05/11 02:56:52;;;;;;;15.43;12.98;;;11.70;99.90;;;;;;5049658;28;20053;-59
2023/05/11 02:59:17;;;;;;;17.05;13.68;;;11.70;99.90;;;;;;5049602;28;20037;-60
2023/05/11 03:01:44;;;;;;;19.00;13.82;;;11.70;99.90;;;;;;5051173;28;20482;-61
2023/05/11 03:04:10;;;;;;;19.00;13.77;;;11.70;99.90;;;;;;5052283;28;20102;-61
2023/05/11 03:06:36;;;;;;;19.88;14.18;;;11.70;99.90;;;;;;5050665;28;20052;-59
2023/05/11 03:09:02;;;;;;;16.20;13.73;;;11.70;99.90;;;;;;5050669;28;20087;-61
2023/05/11 03:11:28;;;;;;;18.52;13.85;;;11.70;99.90;;;;;;5050901;28;20083;-60
2023/05/11 03:13:54;;;;;;;17.50;13.02;;;11.70;99.90;;;;;;5050966;28;20484;-59
2023/05/11 03:16:20;;;;;;;20.55;13.18;;;11.70;99.90;;;;;;5050716;28;20037;-59
2023/05/11 03:18:47;;;;;;;17.95;13.77;;;11.80;99.90;;;;;;5049879;28;20407;-60
2023/05/11 03:21:16;;;;;;;17.55;14.45;;;11.70;99.90;;;;;;5049191;28;20053;-61
2023/05/11 03:23:44;;;;;;;18.23;13.98;;;11.70;99.90;;;;;;5051772;28;20052;-60
2023/05/11 03:26:11;;;;;;;19.27;14.57;;;11.70;99.90;;;;;;5050700;28;20503;-61
2023/05/11 03:28:38;;;;;;;19.23;13.70;;;11.70;99.90;;;;;;5049355;28;20037;-59
2023/05/11 03:31:04;;;;;;;20.50;14.30;;;11.70;99.90;;;;;;5050034;28;20048;-59
2023/05/11 03:33:30;;;;;;;20.08;14.57;;;11.70;99.90;;;;;;5050071;28;20037;-61
2023/05/11 03:35:58;;;;;;;20.67;14.13;;;11.70;99.90;;;;;;5050388;28;20500;-59
2023/05/11 03:38:29;;;;;;;21.85;14.93;;;11.70;99.90;;;;;;5048989;28;20049;-60
2023/05/11 03:40:57;;;;;;;18.77;14.98;;;11.70;99.90;;;;;;5050395;28;20040;-60
2023/05/11 03:43:27;;;;;;;16.92;13.52;;;11.70;99.90;;;;;;5051009;28;20040;-60
2023/05/11 03:45:54;;;;;;;19.25;14.10;;;11.70;99.90;;;;;;5050151;28;20036;-61
2023/05/11 03:48:20;;;;;;;20.92;14.88;;;11.70;99.90;;;;;;5048834;28;20047;-60
2023/05/11 03:50:47;;;;;;;19.77;15.05;;;11.70;99.90;;;;;;5050236;28;20037;-60
2023/05/11 03:53:14;;;;;;;18.95;14.43;;;11.70;99.90;;;;;;5049875;28;20033;-60
2023/05/11 03:55:40;;;;;;;19.02;15.13;;;11.70;99.90;;;;;;5050076;28;20064;-59
2023/05/11 03:58:07;;;;;;;20.10;15.18;;;11.70;99.90;;;;;;5049818;28;20488;-61
2023/05/11 04:00:36;;;;;;;21.13;15.30;;;11.80;99.90;;;;;;5049977;28;20040;-60
2023/05/11 04:03:05;;;;;;;21.13;15.35;;;11.70;99.90;;;;;;5049922;28;20076;-59
2023/05/11 04:05:30;;;;;;;20.27;14.98;;;11.80;99.90;;;;;;5050083;28;20438;-60
2023/05/11 04:07:56;;;;;;;18.90;14.38;;;11.70;99.90;;;;;;5049777;28;20037;-60
2023/05/11 04:10:22;;;;;;;20.67;14.88;;;11.70;99.90;;;;;;5048373;28;20048;-59
2023/05/11 04:12:48;;;;;;;21.55;15.13;;;11.70;99.90;;;;;;5051542;28;21068;-61
2023/05/11 04:15:13;;;;;;;20.45;15.02;;;11.80;99.90;;;;;;5053377;28;20041;-60
2023/05/11 04:17:39;;;;;;;21.08;15.80;;;11.70;99.90;;;;;;5052763;28;20061;-60
2023/05/11 04:20:05;;;;;;;22.75;15.75;;;11.70;99.90;;;;;;5053877;28;20108;-60
2023/05/11 04:22:31;;;;;;;21.40;15.07;;;11.70;99.90;;;;;;5053829;28;20072;-60
2023/05/11 04:24:56;;;;;;;21.33;15.02;;;11.70;99.90;;;;;;5053974;28;20072;-60
2023/05/11 04:27:22;;;;;;;22.52;15.13;;;11.70;99.90;;;;;;5054750;28;20137;-60
2023/05/11 04:29:48;;;;;;;22.67;15.38;;;11.70;99.90;;;;;;5053677;28;20140;-61
2023/05/11 04:32:14;;;;;;;21.10;15.73;;;11.70;99.90;;;;;;5052763;28;20057;-60
2023/05/11 04:34:40;;;;;;;21.00;15.73;;;11.80;99.90;;;;;;5052338;28;20040;-61
2023/05/11 04:37:06;;;;;;;20.58;14.77;;;11.70;99.90;;;;;;5054778;28;20037;-60
2023/05/11 04:39:33;;;;;;;22.35;15.65;;;11.80;99.90;;;;;;5053500;28;20116;-61
2023/05/11 04:42:00;;;;;;;24.55;14.82;;;11.80;99.90;;;;;;5053671;28;20068;-61
2023/05/11 04:44:26;;;;;;;22.17;15.50;;;11.80;99.90;;;;;;5052694;28;20048;-60
2023/05/11 04:46:55;;;;;;;22.35;14.88;;;11.80;99.90;;;;;;5052175;28;20033;-60
2023/05/11 04:49:21;;;;;;;20.42;15.75;;;11.80;99.90;;;;;;5054012;28;20060;-60
2023/05/11 04:51:47;;;;;;;24.77;16.75;;;11.80;99.90;;;;;;5052267;28;20456;-58
2023/05/11 04:54:12;;;;;;;20.00;15.55;;;11.80;99.90;;;;;;5053408;28;20071;-60
2023/05/11 04:56:39;;;;;;;21.88;15.95;;;11.80;99.90;;;;;;5053122;28;20037;-59
2023/05/11 04:59:08;;;;;;;23.88;15.63;;;11.80;99.90;;;;;;5054282;28;20044;-59
2023/05/11 05:01:34;;;;;;;22.13;14.65;;;11.90;99.90;;;;;;5052024;28;20111;-59
2023/05/11 05:04:00;;;;;;;19.48;14.63;;;11.90;99.90;;;;;;5052925;28;20155;-60
2023/05/11 05:06:26;;;;;;;20.05;14.98;;;11.90;99.90;;;;;;5068170;28;20400;-60
2023/05/11 05:08:52;;;;;;;21.65;15.65;;;11.90;99.90;;;;;;5053680;28;20623;-60
2023/05/11 05:11:17;;;;;;;23.00;15.70;;;11.90;99.90;;;;;;5053237;28;20048;-59
2023/05/11 05:13:43;;;;;;;24.63;15.73;;;12.00;99.90;;;;;;5052958;28;20041;-59
2023/05/11 05:16:09;;;;;;;22.75;16.52;;;12.00;99.90;;;;;;5034970;28;20033;-59
2023/05/11 05:18:35;;;;;;;24.52;16.90;;;11.90;99.90;;;;;;5052895;28;20424;-60
2023/05/11 05:21:01;;;;;;;24.05;17.30;;;11.90;99.90;;;;;;5053106;28;20036;-59
2023/05/11 05:23:27;;;;;;;23.73;17.17;;;11.90;99.90;;;;;;5052033;28;20049;-59
2023/05/11 05:25:52;;;;;;;25.40;17.42;;;11.90;99.90;;;;;;5051990;28;20037;-61
2023/05/11 05:28:18;;;;;;;25.45;16.95;;;11.90;99.90;;;;;;5051891;28;20055;-60
2023/05/11 05:30:44;;;;;;;25.00;17.20;;;11.90;99.90;;;;;;5049599;28;20065;-59
2023/05/11 05:33:09;;;;;;;21.70;15.85;;;11.90;99.90;;;;;;5053027;28;20044;-59
2023/05/11 05:35:35;;;;;;;23.88;15.80;;;11.90;99.90;;;;;;5052647;28;20444;-60
2023/05/11 05:38:01;;;;;;;21.40;15.93;;;11.90;99.90;;;;;;5052493;28;20446;-60
2023/05/11 05:40:27;;;;;;;23.92;16.15;;;11.90;99.90;;;;;;5050054;28;20052;-60
2023/05/11 05:42:53;;;;;;;21.35;14.65;;;12.00;99.90;;;;;;5051142;28;20052;-61
2023/05/11 05:45:19;;;;;;;21.05;15.20;;;12.00;99.90;;;;;;5051367;28;20445;-60
2023/05/11 05:47:45;;;;;;;21.17;15.95;;;12.00;99.90;;;;;;5051391;28;20124;-60
2023/05/11 05:50:11;;;;;;;20.92;15.75;;;12.00;99.90;;;;;;5065450;28;20057;-62
2023/05/11 05:52:37;;;;;;;19.20;14.57;;;12.00;99.90;;;;;;5051057;28;20388;-60
2023/05/11 05:55:02;;;;;;;20.52;14.77;;;11.90;99.90;;;;;;5049957;28;20369;-60
2023/05/11 05:57:29;;;;;;;18.85;13.73;;;12.00;99.90;;;;;;5050417;28;20110;-61
2023/05/11 05:59:55;;;;;;;19.52;14.18;;;12.00;99.90;;;;;;5050757;28;20058;-60
2023/05/11 06:02:21;;;;;;;21.52;15.82;;;12.00;99.90;;;;;;5047270;28;20479;-59
2023/05/11 06:04:46;;;;;;;22.50;16.13;;;12.00;99.90;;;;;;5047647;28;20033;-60
2023/05/11 06:07:13;;;;;;;23.35;15.93;;;12.00;99.90;;;;;;5050361;28;20056;-62
2023/05/11 06:09:39;;;;;;;23.20;15.07;;;11.90;99.90;;;;;;5049479;28;20044;-60
2023/05/11 06:12:05;;;;;;;23.33;16.25;;;11.90;99.90;;;;;;5050505;28;20126;-60
2023/05/11 06:14:31;;;;;;;24.08;15.23;;;11.90;99.90;;;;;;5050038;28;20404;-61
2023/05/11 06:16:57;;;;;;;24.10;15.40;;;11.90;99.90;;;;;;5051169;28;20174;-59
2023/05/11 06:19:22;;;;;;;22.27;14.90;;;11.90;99.90;;;;;;5050532;28;20454;-61
2023/05/11 06:21:48;;;;;;;20.20;14.00;;;11.90;99.90;;;;;;5049258;28;20067;-59
2023/05/11 06:24:14;;;;;;;18.10;12.88;;;11.90;99.90;;;;;;5049019;28;20071;-59
2023/05/11 06:26:42;;;;;;;18.63;12.85;;;11.90;99.90;;;;;;5049125;28;20411;-59
2023/05/11 06:29:07;;;;;;;19.35;13.18;;;11.80;99.90;;;;;;5049469;28;20029;-61
2023/05/11 06:31:33;;;;;;;19.40;13.38;;;11.90;99.90;;;;;;5050779;28;20087;-59
2023/05/11 06:33:59;;;;;;;19.63;13.30;;;11.90;99.90;;;;;;5047736;28;20033;-61
2023/05/11 06:36:25;;;;;;;17.13;12.40;;;11.90;99.90;;;;;;5049242;28;20451;-60
2023/05/11 06:38:50;;;;;;;20.63;14.10;;;11.90;99.90;;;;;;5049529;28;20045;-60
2023/05/11 06:41:16;;;;;;;21.17;13.52;;;11.80;99.90;;;;;;5050508;28;20040;-59
2023/05/11 06:43:42;;;;;;;18.60;13.45;;;11.80;99.90;;;;;;5049975;28;20037;-61
2023/05/11 06:46:08;;;;;;;16.25;12.13;;;11.70;99.90;;;;;;5050790;28;20106;-62
2023/05/11 06:48:34;;;;;;;18.25;12.00;;;11.70;99.90;;;;;;5050794;28;20041;-61
2023/05/11 06:51:00;;;;;;;17.25;10.48;;;11.70;99.90;;;;;;5050160;28;20041;-59
2023/05/11 06:53:29;;;;;;;13.75;9.60;;;11.70;99.90;;;;;;5051269;28;20483;-61
2023/05/11 06:55:55;;;;;;;12.88;9.45;;;11.70;99.90;;;;;;5050064;28;20392;-61
2023/05/11 06:58:20;;;;;;;12.88;9.52;;;11.70;99.90;;;;;;5050442;28;20079;-60
2023/05/11 07:00:46;;;;;;;12.30;9.30;;;11.70;99.90;;;;;;5049603;28;20037;-60
2023/05/11 07:03:11;;;;;;;11.85;9.18;;;11.70;99.90;;;;;;5049353;28;20045;-62
2023/05/11 07:05:38;;;;;;;13.80;9.23;;;11.70;99.90;;;;;;5050688;28;20072;-61
2023/05/11 07:08:04;;;;;;;12.40;9.48;;;11.80;99.90;;;;;;5049558;28;20065;-59
2023/05/11 07:10:30;;;;;;;12.35;9.60;;;11.80;99.90;;;;;;5049726;28;20049;-61
2023/05/11 07:12:56;;;;;;;12.35;9.35;;;11.80;99.90;;;;;;5050041;28;20484;-59
2023/05/11 07:15:21;;;;;;;13.45;9.60;;;11.70;99.90;;;;;;5049284;28;20047;-59
2023/05/11 07:17:48;;;;;;;12.65;8.95;;;11.70;99.90;;;;;;5050201;28;20033;-59
2023/05/11 07:20:14;;;;;;;10.73;7.90;;;11.70;99.90;;;;;;5048235;28;20111;-61
2023/05/11 07:22:40;;;;;;;10.60;7.10;;;11.70;99.90;;;;;;5050650;28;20112;-61
2023/05/11 07:25:07;;;;;;;9.88;7.50;;;11.80;99.90;;;;;;5050618;28;20041;-59
2023/05/11 07:27:33;;;;;;;11.32;7.60;;;11.80;99.90;;;;;;5049128;28;20045;-60
2023/05/11 07:29:59;;;;;;;9.45;7.32;;;11.80;99.90;;;;;;5048178;28;20071;-62
2023/05/11 07:32:24;;;;;;;12.32;7.05;;;11.80;99.90;;;;;;5049954;28;20033;-60
2023/05/11 07:34:50;;;;;;;7.55;5.68;;;11.80;99.90;;;;;;5050337;28;20372;-59
2023/05/11 07:37:16;;;;;;;7.85;6.03;;;11.80;99.90;;;;;;5048683;28;20064;-60
2023/05/11 07:39:41;;;;;;;7.55;5.10;;;11.80;99.90;;;;;;5050086;28;20053;-60
2023/05/11 07:42:07;;;;;;;7.05;4.70;;;11.80;99.90;;;;;;5049117;28;20355;-60
2023/05/11 07:44:32;;;;;;;6.35;3.92;;;11.80;99.90;;;;;;5047648;28;20041;-61
2023/05/11 07:46:58;;;;;;;4.22;2.88;;;11.90;99.90;;;;;;5049714;28;20094;-60
2023/05/11 07:49:24;;;;;;;5.22;2.60;;;12.00;99.90;;;;;;5050516;28;20155;-59
2023/05/11 07:51:51;;;;;;;3.92;2.50;;;12.00;99.90;;;;;;5049873;28;20450;-60
2023/05/11 07:54:17;;;;;;;3.05;1.90;;;12.00;99.90;;;;;;5050140;28;20051;-60
2023/05/11 07:56:42;;;;;;;2.33;1.80;;;12.10;99.90;;;;;;5049169;28;20045;-60
2023/05/11 07:59:08;;;;;;;2.42;1.55;;;12.10;99.90;;;;;;5048928;28;20056;-60
2023/05/11 08:01:33;;;;;;;4.32;3.03;;;12.20;99.90;;;;;;5050164;28;20041;-59
2023/05/11 08:03:59;;;;;;;2.67;1.50;;;12.30;99.90;;;;;;5050571;28;20135;-61
2023/05/11 08:06:25;;;;;;;3.28;2.10;;;12.40;99.90;;;;;;5048718;28;20040;-61
2023/05/11 08:08:51;;;;;;;2.83;1.92;;;12.40;99.90;;;;;;5049903;28;20068;-59
2023/05/11 08:11:16;;;;;;;4.63;2.53;;;12.50;99.90;;;;;;5050242;28;20060;-60
2023/05/11 08:13:42;;;;;;;6.78;3.75;;;12.60;99.90;;;;;;5049937;28;20076;-61
2023/05/11 08:16:08;;;;;;;6.72;4.30;;;12.60;99.90;;;;;;5050047;28;20392;-59
2023/05/11 08:18:34;;;;;;;8.27;5.18;;;12.70;99.90;;;;;;5048815;28;20033;-59
2023/05/11 08:20:59;;;;;;;8.35;5.57;;;12.80;99.90;;;;;;5048742;28;20049;-62
2023/05/11 08:23:25;;;;;;;7.97;5.30;;;12.80;99.90;;;;;;5050084;28;20395;-60
2023/05/11 08:25:53;;;;;;;8.77;5.22;;;12.90;99.90;;;;;;5049907;28;20045;-59
2023/05/11 08:28:20;;;;;;;9.05;5.88;;;13.10;99.90;;;;;;5049940;28;20037;-60
2023/05/11 08:30:46;;;;;;;7.15;4.88;;;13.20;99.90;;;;;;5049797;28;20045;-60
2023/05/11 08:33:12;;;;;;;9.20;7.40;;;13.20;99.90;;;;;;5050166;28;20131;-61
2023/05/11 08:35:39;;;;;;;12.30;9.70;;;13.30;99.90;;;;;;5048593;28;20037;-61
2023/05/11 08:38:05;;;;;;;7.28;5.13;;;13.40;99.90;;;;;;5048464;28;20110;-62
2023/05/11 08:40:31;;;;;;;7.20;4.88;;;13.50;99.90;;;;;;5049135;28;20499;-60
2023/05/11 08:42:59;;;;;;;6.15;4.35;;;13.60;99.90;;;;;;5049459;28;20037;-62
2023/05/11 08:45:26;;;;;;;5.80;4.43;;;13.70;99.90;;;;;;5050108;28;20391;-60
2023/05/11 08:47:52;;;;;;;5.38;4.53;;;13.70;99.90;;;;;;5049840;28;20033;-62
2023/05/11 08:50:18;;;;;;;6.03;4.75;;;13.70;99.90;;;;;;5048254;28;20053;-59
2023/05/11 08:52:44;;;;;;;5.22;3.72;;;13.80;99.90;;;;;;5049874;28;20048;-59
2023/05/11 08:55:10;;;;;;;4.55;4.07;;;13.90;99.90;;;;;;5049604;28;20040;-60
2023/05/11 08:57:37;;;;;;;4.28;3.22;;;14.00;99.90;;;;;;5049404;28;20484;-62
2023/05/11 09:00:04;;;;;;;5.25;3.95;;;14.10;99.90;;;;;;5051896;28;20376;-60
2023/05/11 09:02:31;;;;;;;5.20;3.13;;;14.10;99.90;;;;;;5053921;28;20122;-63
2023/05/11 09:04:58;;;;;;;4.47;3.00;;;14.20;99.90;;;;;;5052076;28;20037;-60
2023/05/11 09:07:27;;;;;;;4.32;3.25;;;14.40;99.90;;;;;;5053242;28;20563;-61
2023/05/11 09:09:53;;;;;;;5.53;4.03;;;14.60;99.90;;;;;;5046507;28;20080;-61
2023/05/11 09:12:19;;;;;;;4.40;3.47;;;14.70;99.90;;;;;;5051854;28;20531;-60
2023/05/11 09:14:46;;;;;;;5.15;3.70;;;15.00;99.90;;;;;;5053012;28;20032;-61
2023/05/11 09:17:12;;;;;;;5.20;3.53;;;15.30;99.90;;;;;;5051596;28;20053;-61
2023/05/11 09:20:05;;;;;;;4.60;3.50;;;15.50;99.90;;;;;;5050596;28;20033;-61
2023/05/11 09:22:39;;;;;;;4.50;3.25;;;15.70;99.90;;;;;;5052778;28;20502;-59
2023/05/11 09:25:05;;;;;;;4.95;3.10;;;15.80;99.90;;;;;;5050413;28;20045;-60
2023/05/11 09:27:31;;;;;;;3.00;2.70;;;15.80;99.90;;;;;;5053104;28;20045;-59
2023/05/11 09:30:11;;;;;;;3.33;2.80;;;16.10;99.90;;;;;;5052096;28;20387;-61
2023/05/11 09:32:52;;;;;;;2.40;2.20;;;16.30;99.90;;;;;;5049498;28;20106;-59
2023/05/11 09:35:27;;;;;;;2.38;1.75;;;16.50;99.90;;;;;;5052728;28;20040;-61
2023/05/11 09:37:59;;;;;;;2.60;1.63;;;16.70;99.90;;;;;;5034842;28;20071;-61
2023/05/11 09:40:27;;;;;;;1.63;1.30;;;16.80;99.90;;;;;;5052680;28;20045;-61
2023/05/11 09:42:53;;;;;;;1.70;1.20;;;16.80;99.90;;;;;;5052771;28;20039;-60
2023/05/11 09:45:40;;;;;;;1.50;1.38;;;16.80;99.90;;;;;;5052319;28;20061;-61
2023/05/11 09:48:12;;;;;;;0.80;0.80;;;16.80;99.90;;;;;;5049660;28;20532;-61
2023/05/11 09:50:38;;;;;;;1.10;0.70;;;16.80;99.90;;;;;;5050725;28;20091;-61
2023/05/11 09:53:04;;;;;;;1.85;0.60;;;16.80;99.90;;;;;;5048217;28;20040;-62
2023/05/11 09:55:30;;;;;;;1.20;0.80;;;16.80;99.90;;;;;;5051971;28;20042;-61
2023/05/11 09:57:58;;;;;;;0.70;0.68;;;16.90;99.90;;;;;;5051193;28;20388;-62
2023/05/11 10:00:24;;;;;;;0.98;0.90;;;17.10;99.90;;;;;;5052359;28;20037;-62
2023/05/11 10:03:06;;;;;;;1.15;0.98;;;17.40;99.90;;;;;;5052380;28;20032;-60
2023/05/11 10:05:34;;;;;;;2.13;0.68;;;17.80;99.90;;;;;;5052121;28;20045;-61
2023/05/11 10:08:04;;;;;;;0.57;0.57;;;18.20;99.90;;;;;;5052286;28;20055;-61
2023/05/11 10:10:33;;;;;;;1.38;0.80;;;18.60;99.90;;;;;;5048518;28;20037;-60
2023/05/11 10:13:01;;;;;;;0.75;0.70;;;18.60;99.90;;;;;;5052138;28;20036;-60
2023/05/11 10:15:29;;;;;;;1.08;0.70;;;18.50;99.90;;;;;;5051548;28;20052;-61
2023/05/11 10:17:57;;;;;;;0.77;0.70;;;18.30;99.90;;;;;;5050948;28;20037;-61
2023/05/11 10:20:26;;;;;;;0.70;0.70;;;18.00;99.90;;;;;;5051656;28;20511;-60
2023/05/11 10:22:53;;;;;;;0.93;0.93;;;17.90;99.90;;;;;;5051791;28;20028;-61
2023/05/11 10:25:23;;;;;;;0.90;0.90;;;17.60;99.90;;;;;;5050465;28;20483;-62
2023/05/11 10:27:50;;;;;;;2.25;1.55;;;17.60;99.90;;;;;;5049825;28;20052;-61
2023/05/11 10:30:16;;;;;;;1.20;1.10;;;17.50;99.90;;;;;;5050508;28;20041;-60
2023/05/11 10:32:44;;;;;;;1.42;0.95;;;17.40;99.90;;;;;;5051284;28;20032;-62
2023/05/11 10:35:10;;;;;;;1.52;0.80;;;17.30;99.90;;;;;;5051147;28;20036;-59
2023/05/11 10:37:36;;;;;;;0.65;0.65;;;17.30;99.90;;;;;;5047721;28;20033;-59
2023/05/11 10:40:03;;;;;;;0.68;0.68;;;17.20;99.90;;;;;;5050579;28;20404;-61
2023/05/11 10:43:13;;;;;;;0.63;0.63;;;17.30;99.90;;;;;;5051713;28;20194;-60
2023/05/11 10:46:12;;;;;;;1.92;0.70;;;17.30;99.90;;;;;;5050396;28;20487;-61
2023/05/11 10:49:13;;;;;;;0.47;0.47;;;17.30;99.90;;;;;;5051095;28;20108;-61
2023/05/11 10:52:09;;;;;;;1.90;0.60;;;17.10;99.90;;;;;;5051243;28;20044;-60
2023/05/11 10:55:08;;;;;;;0.65;0.65;;;17.00;99.90;;;;;;5051182;28;20072;-60
2023/05/11 10:57:47;;;;;;;1.80;0.60;;;16.90;99.90;;;;;;5049911;28;20389;-62
2023/05/11 11:00:36;;;;;;;1.38;0.60;;;16.70;99.90;;;;;;5051359;28;20522;-60
2023/05/11 11:03:12;;;;;;;0.40;0.40;;;16.70;99.90;;;;;;5051546;28;20036;-60
2023/05/11 11:05:38;;;;;;;2.45;0.60;;;16.70;99.90;;;;;;5051004;28;20095;-61
2023/05/11 11:08:07;;;;;;;0.65;0.63;;;16.70;99.90;;;;;;5044222;28;20076;-61
2023/05/11 11:10:38;;;;;;;0.85;0.70;;;16.80;99.90;;;;;;5049520;28;20038;-59
2023/05/11 11:13:09;;;;;;;0.82;0.47;;;16.80;99.90;;;;;;5049619;28;20037;-61
2023/05/11 11:15:53;;;;;;;0.40;0.40;;;17.00;99.90;;;;;;5050960;28;20048;-61
2023/05/11 11:18:32;;;;;;;0.60;0.60;;;17.10;99.90;;;;;;5049693;28;20082;-60
2023/05/11 11:20:58;;;;;;;0.60;0.60;;;17.20;99.90;;;;;;5049630;28;20045;-60
2023/05/11 11:23:38;;;;;;;0.52;0.43;;;17.10;99.90;;;;;;5050771;28;20403;-60
2023/05/11 11:26:05;;;;;;;0.63;0.40;;;17.10;99.90;;;;;;5051059;28;20063;-60
2023/05/11 11:29:03;;;;;;;0.60;0.40;;;17.10;99.90;;;;;;5051045;28;20094;-61
2023/05/11 11:31:31;;;;;;;0.60;0.50;;;17.10;99.90;;;;;;5032102;28;20191;-61
2023/05/11 11:34:17;;;;;;;0.50;0.50;;;17.10;99.90;;;;;;5050400;28;20041;-61
2023/05/11 11:36:59;;;;;;;0.60;0.60;;;17.10;99.90;;;;;;5050560;28;20533;-62
2023/05/11 11:39:25;;;;;;;0.60;0.60;;;17.20;99.90;;;;;;5049430;28;20135;-60
2023/05/11 11:42:00;;;;;;;2.45;1.20;;;17.10;99.90;;;;;;5050298;28;20159;-60
2023/05/11 11:44:26;;;;;;;1.20;1.10;;;17.10;99.90;;;;;;5049145;28;20136;-59
2023/05/11 11:47:13;;;;;;;1.20;1.10;;;17.00;99.90;;;;;;5050323;28;20151;-61
2023/05/11 11:49:40;;;;;;;1.27;1.17;;;17.00;99.90;;;;;;5049203;28;20083;-60
2023/05/11 11:52:32;;;;;;;1.30;1.20;;;17.00;99.90;;;;;;5048989;28;20062;-60
2023/05/11 11:54:58;;;;;;;;;;;17.00;99.90;;;;;;5011938;28;20102;-59
2023/05/11 11:57:33;;;;;;;2.45;1.35;;;17.00;99.90;;;;;;5028137;28;20004;-63
2023/05/11 12:00:00;;;;;;;2.30;1.38;;;17.00;99.90;;;;;;5011484;28;20045;-61
2023/05/11 12:02:26;;;;;;;1.48;1.38;;;17.10;99.90;;;;;;4995325;28;20033;-59
2023/05/11 12:05:11;;;;;;;2.67;2.03;;;17.10;99.90;;;;;;5011306;28;20495;-60
2023/05/11 12:07:41;;;;;;;1.42;1.10;;;17.10;99.90;;;;;;5027859;28;20066;-59
2023/05/11 12:10:07;;;;;;;1.58;1.48;;;17.10;99.90;;;;;;5027825;28;20061;-60
2023/05/11 12:12:36;;;;;;;2.00;1.80;;;17.30;99.90;;;;;;5028020;28;20192;-61
2023/05/11 12:15:02;;;;;;;2.50;2.30;;;17.30;99.90;;;;;;5011399;28;20049;-60
2023/05/11 12:17:28;;;;;;;3.13;2.40;;;17.40;99.90;;;;;;5028127;28;20053;-59
2023/05/11 12:20:10;;;;;;;2.55;2.30;;;17.50;99.90;;;;;;5027636;28;20552;-61
2023/05/11 12:22:36;;;;;;;4.10;2.75;;;17.50;99.90;;;;;;5011496;28;20112;-59
2023/05/11 12:25:05;;;;;;;3.25;2.70;;;17.50;99.90;;;;;;5011270;28;20148;-61
2023/05/11 12:27:31;;;;;;;2.90;2.60;;;17.60;99.90;;;;;;5011770;28;20073;-60
2023/05/11 12:29:58;;;;;;;3.65;3.08;;;17.50;99.90;;;;;;5027510;28;20564;-61
2023/05/11 12:32:30;;;;;;;3.92;3.50;;;17.70;99.90;;;;;;5035374;28;20053;-60
2023/05/11 12:34:57;;;;;;;;;;;17.80;99.90;;;;;;5053808;28;20037;-61
2023/05/11 12:37:23;;;;;;;4.35;3.95;;;17.90;99.90;;;;;;5053894;28;19921;-59
2023/05/11 12:39:53;;;;;;;4.85;4.05;;;17.90;99.90;;;;;;5053969;28;20033;-60
2023/05/11 12:42:20;;;;;;;5.65;3.97;;;18.00;99.90;;;;;;5052566;28;20403;-60
2023/05/11 12:44:46;;;;;;;4.90;4.40;;;18.10;99.90;;;;;;5052967;28;20059;-62